Phu Quoc Airport
VVPQ : now visible

Airfield :











YOU CAN JOIN US ON...

 
LOGIN :

Register | Disclaimer

   EN    FR    IT 

 









Legend :    VFR   Marginal VFR   IFR   Intensive IFR   Very Intensive IFR
Visi :
Ceiling :
>= 8 km
>= 3000ft
5 to 8 km
1000 to 3000 ft
1500m to 5 km
500 to 1000 ft
800 to 1500m
200 to 500 ft
< 800m
< 200 ft
Symbols :   Thunderstorms  Fog  Heavy snow  Heavy precipitations  Wind > 20 kt







- Airport Elevation : 23 ft
- IATA code : PQC


VVPQ - Phu Quoc

CURRENT METAR :
  • 170400Z 32005KT 9999 SCT015 BKN040 26/24 Q1009 NOSIG

EXPIRED METARs :
  • 170330Z 33006KT 9999 SCT015 BKN040 25/24 Q1009 NOSIG
  • 170300Z 32009KT 1500 +SHRA SCT013 FEW015CB BKN040 25/23 Q1010 BECMG TL0310 4000 SHRA CB/E/SE
  • 170230Z VRB02KT 5000 -SHRA SCT013 FEW015CB BKN040 26/24 Q1010 NOSIG CB/E/SE
  • 170200Z 31010G20KT 250V360 6000 -SHRA SCT013 FEW015CB BKN040 26/23 Q1009 NOSIG CB/NE/E
  • 170130Z 26010KT 220V280 9999 SCT015 FEW017CB BKN040 28/24 Q1009 NOSIG CB/NE

TAF TAF VVPQ
Valid from the 17 at 00:00 until the 18 at 00:00 UTC


162300Z 1700/1724 25013KT 9999 SCT015 SCT040
TEMPO 1703/1708 25015G27KT 3000 TSRA BKN013 SCT015CB
No reported NOTAMs for that airfield.



MET'MAP, your aeronautical weather chart ! - Copyright ORBIFLY December 2007 - Disclaimer

ORBIFLY MET'MAP TEAM :

Programming & Development : Alexandra Zaïnal
Concept & Development : Baudouin d'Aumeries
Co-Development & Prog : Marc-Olivier Méhu
Technical & hardware support : Manuel Goepfert

Contact : metmap@orbifly.com




SOURCES & CREDITS :

   NOAA       Earth
Advisory